Pagrindinis puslapis
METAR-TAF:

METAR-TAF

Oro uostai :

Ängelholm–Helsingborg

Helsingborgas, Švedija

platuma: 56-17-46N, ilguma: 012-50-50E, Aukštis: 21 m

Dabartinis oras

Ataskaita buvo paskelbta 17 minutes, ne 18:20 UTC
Vėjas 7 kt iš Pietų/Pietryčių
Temperatūra 16°C
Drėgmė 77%
Slėgis 1002 hPa
Matomumas 10 km arba daugiau

METAR: ESTA 231820Z AUTO 16007KT 9999 NCD 16/12 Q1002

Laikas: 20:37 (18:37 UTC)

Prognozė

Ataskaita buvo paskelbta 4 valandos ir 35 minutes, ne 14:02 UTC
Prognozė galioja nuo 23 metu 15 UTC su 23 metu 19 UTC
Vėjas 10 kt iš Pietų
Matomumas 10 km arba daugiau
nėra debesų žemiau 1500 m ir nėra kamuolinių lietaus debesų

TAF: ESTA 231402Z 2315/2319 19010KT CAVOK

Orai ataskaitas ir orų prognozės (METAR, TAF).

turimą stotys yra geltonos ir raudonos taškus žemėlapyje.

Perkelti pele per norėdami pamatyti stoties vardą.

Tada spustelėkite, norėdami matyti oro stebėjimo ir prognozės.

Norėdami pakeisti žemėlapį: spustelėkite ant žalios mygtukų su juodo kryžiaus žemyn,; žalią mygtuką su brūkšneliu, jei norite nutolinti; arba žalių rodyklių gretimoms žemėlapius.


METAR-TAF: